Time;durP1;ratioP1;P1;durP2;ratioP2;P2;SDS_P1;SDS_P2;PMS_P1;PMS_P2;Temp;Humidity;BMP_temperature;BMP_pressure;BME280_temperature;BME280_humidity;BME280_pressure;Samples;Min_cycle;Max_cycle;Signal;HPM_P1;HPM_P2
2021/05/17 00:00:10;;;;;;;3.88;2.50;;;;;;;15.09;57.49;99986.00;4992231;28;123474;-69
2021/05/17 00:02:43;;;;;;;3.60;2.80;;;;;;;15.09;57.63;99986.00;4993377;28;113229;-69
2021/05/17 00:05:11;;;;;;;4.28;2.70;;;;;;;15.09;57.71;99980.69;4993529;28;114530;-69
2021/05/17 00:07:38;;;;;;;6.70;2.97;;;;;;;15.09;57.75;99986.00;4997342;28;123842;-69
2021/05/17 00:10:08;;;;;;;5.32;2.80;;;;;;;15.07;57.76;99979.91;4983415;28;123883;-69
2021/05/17 00:12:35;;;;;;;4.15;2.65;;;;;;;15.06;57.79;99987.09;4997027;28;114659;-69
2021/05/17 00:15:10;;;;;;;4.18;2.38;;;;;;;15.06;57.87;99988.91;5011815;28;114252;-69
2021/05/17 00:17:37;;;;;;;4.15;2.88;;;;;;;15.05;57.75;99995.19;5011726;28;123940;-69
2021/05/17 00:20:06;;;;;;;5.18;2.58;;;;;;;15.05;57.94;99988.06;5000990;28;124131;-69
2021/05/17 00:22:34;;;;;;;2.95;2.38;;;;;;;15.04;57.86;99977.50;5010229;28;114779;-68
2021/05/17 00:25:01;;;;;;;5.03;2.60;;;;;;;15.05;57.89;99984.53;4993364;28;113948;-69
2021/05/17 00:27:28;;;;;;;3.70;2.55;;;;;;;15.05;58.14;99984.53;4989048;28;122748;-69
2021/05/17 00:29:57;;;;;;;4.93;2.65;;;;;;;15.05;57.94;99984.53;4999316;28;123078;-69
2021/05/17 00:32:24;;;;;;;4.90;2.63;;;;;;;15.04;57.86;99985.50;4994665;28;114794;-69
2021/05/17 00:34:52;;;;;;;4.15;3.08;;;;;;;15.01;57.87;99975.91;4993044;28;115808;-69
2021/05/17 00:37:19;;;;;;;4.88;3.10;;;;;;;14.94;57.83;99983.56;4993757;28;124331;-68
2021/05/17 00:39:46;;;;;;;5.32;3.30;;;;;;;14.90;58.22;99982.09;4991697;28;124339;-69
2021/05/17 00:42:14;;;;;;;6.15;3.47;;;;;;;14.86;58.17;99975.31;5006130;28;114579;-69
2021/05/17 00:44:42;;;;;;;5.13;3.33;;;;;;;14.84;58.27;99982.53;4992154;28;115103;-69
2021/05/17 00:47:15;;;;;;;5.72;3.90;;;;;;;14.81;58.46;99982.81;4974188;28;123141;-69
2021/05/17 00:49:45;;;;;;;4.43;3.60;;;;;;;14.80;58.52;99975.75;4991703;28;123851;-69
2021/05/17 00:52:14;;;;;;;4.93;3.60;;;;;;;14.80;58.51;99975.75;4988031;28;113362;-69
2021/05/17 00:54:41;;;;;;;6.65;3.88;;;;;;;14.80;58.49;99981.09;4993196;28;115036;-69
2021/05/17 00:57:09;;;;;;;7.60;4.25;;;;;;;14.79;58.68;99980.25;4991760;28;123806;-69
2021/05/17 00:59:37;;;;;;;8.25;4.78;;;;;;;14.79;58.69;99979.41;5000078;28;123865;-69
2021/05/17 01:02:04;;;;;;;8.82;4.53;;;;;;;14.78;58.63;99975.03;5004727;28;114228;-69
2021/05/17 01:04:51;;;;;;;7.30;3.97;;;;;;;14.76;58.63;99968.97;4991768;28;113442;-69
2021/05/17 01:07:24;;;;;;;7.00;4.40;;;;;;;14.74;58.76;99970.91;4990444;28;123959;-69
2021/05/17 01:09:56;;;;;;;7.55;4.65;;;;;;;14.74;58.95;99970.91;4988534;28;124352;-69
2021/05/17 01:12:24;;;;;;;6.68;4.38;;;;;;;14.73;59.03;99969.19;4999408;28;113535;-69
2021/05/17 01:14:57;;;;;;;7.40;4.45;;;;;;;14.73;58.91;99974.53;4991683;28;113365;-69
2021/05/17 01:17:28;;;;;;;6.63;4.32;;;;;;;14.72;59.15;99973.69;4989058;28;124261;-68
2021/05/17 01:19:59;;;;;;;5.88;4.63;;;;;;;14.71;59.18;99976.47;4989764;28;123720;-69
2021/05/17 01:22:40;;;;;;;6.82;4.43;;;;;;;14.70;59.00;99966.78;4992617;28;113499;-68
2021/05/17 01:25:08;;;;;;;6.07;4.50;;;;;;;14.70;59.14;99964.13;4989264;28;114426;-69
2021/05/17 01:27:36;;;;;;;6.85;4.75;;;;;;;14.68;59.07;99971.38;4984348;28;123631;-68
2021/05/17 01:30:04;;;;;;;5.82;4.43;;;;;;;14.67;59.11;99965.19;5004061;28;122960;-69
2021/05/17 01:32:32;;;;;;;7.75;4.93;;;;;;;14.66;59.27;99968.00;4991049;28;115713;-69
2021/05/17 01:35:00;;;;;;;6.30;4.80;;;;;;;14.64;59.38;99970.75;4998722;28;114779;-69
2021/05/17 01:37:32;;;;;;;7.10;4.45;;;;;;;14.62;59.36;99972.69;4970744;28;124253;-68
2021/05/17 01:40:00;;;;;;;7.07;4.65;;;;;;;14.62;59.38;99966.50;4990000;28;124191;-69
2021/05/17 01:42:31;;;;;;;6.90;5.15;;;;;;;14.60;59.35;99970.16;4988569;28;112605;-69
2021/05/17 01:45:02;;;;;;;7.90;5.30;;;;;;;14.56;59.48;99963.31;5003758;28;112891;-68
2021/05/17 01:47:43;;;;;;;8.20;5.22;;;;;;;14.54;59.35;99957.25;4988817;28;123752;-68
2021/05/17 01:50:15;;;;;;;7.07;5.43;;;;;;;14.51;59.32;99960.16;4991683;28;124556;-69
2021/05/17 01:52:43;;;;;;;8.02;5.40;;;;;;;14.50;59.24;99968.25;4988773;28;113239;-69
2021/05/17 01:55:13;;;;;;;8.15;5.35;;;;;;;14.47;59.48;99966.69;4990952;28;113873;-69
2021/05/17 01:57:40;;;;;;;7.35;5.30;;;;;;;14.46;59.29;99962.31;4988009;28;123409;-68
2021/05/17 02:00:13;;;;;;;7.43;5.40;;;;;;;14.44;59.52;99958.91;5003070;28;123249;-68
2021/05/17 02:02:40;;;;;;;10.45;5.72;;;;;;;14.44;59.43;99961.56;4991142;28;114193;-69
2021/05/17 02:05:13;;;;;;;9.70;5.60;;;;;;;14.42;59.51;99960.84;4973200;28;113928;-69
2021/05/17 02:07:41;;;;;;;9.38;5.70;;;;;;;14.40;59.61;99957.44;4988639;28;123070;-69
2021/05/17 02:10:10;;;;;;;9.07;5.70;;;;;;;14.40;59.67;99960.94;4990565;28;124756;-68
2021/05/17 02:12:39;;;;;;;7.35;5.60;;;;;;;14.40;59.71;99957.44;4991017;28;115042;-69
2021/05/17 02:15:17;;;;;;;9.93;6.32;;;;;;;14.41;59.88;99964.47;4988470;28;113713;-68
2021/05/17 02:18:02;;;;;;;10.50;6.43;;;;;;;14.40;59.64;99960.09;4988648;28;123596;-69
2021/05/17 02:20:32;;;;;;;8.25;5.72;;;;;;;14.40;59.93;99957.44;5004842;28;123219;-68
2021/05/17 02:23:01;;;;;;;11.18;6.38;;;;;;;14.38;59.93;99962.88;4988398;28;115785;-68
2021/05/17 02:25:28;;;;;;;10.40;6.15;;;;;;;14.40;60.09;99968.09;5003370;28;114843;-69
2021/05/17 02:28:00;;;;;;;9.38;6.13;;;;;;;14.39;59.98;99966.38;4978353;28;124815;-68
2021/05/17 02:30:28;;;;;;;8.80;5.93;;;;;;;14.39;59.93;99961.06;4988606;28;123653;-69
2021/05/17 02:32:56;;;;;;;10.45;6.57;;;;;;;14.41;60.10;99961.81;4985841;28;113753;-68
2021/05/17 02:35:30;;;;;;;8.73;6.38;;;;;;;14.43;60.14;99962.56;4996813;28;114614;-68
2021/05/17 02:37:58;;;;;;;10.60;6.57;;;;;;;14.43;60.18;99967.88;5002853;28;123517;-69
2021/05/17 02:40:25;;;;;;;10.27;7.07;;;;;;;14.43;60.16;99967.00;4989266;28;123221;-69
2021/05/17 02:43:02;;;;;;;9.65;6.63;;;;;;;14.43;60.20;99973.22;4986476;28;113696;-69
2021/05/17 02:45:41;;;;;;;10.25;6.88;;;;;;;14.44;59.96;99969.56;4972556;28;113431;-69
2021/05/17 02:48:09;;;;;;;8.23;6.53;;;;;;;14.43;60.31;99967.88;4988622;28;124099;-69
2021/05/17 02:50:41;;;;;;;8.18;6.13;;;;;;;14.41;60.22;99967.16;4987970;28;125134;-69
2021/05/17 02:53:32;;;;;;;9.57;6.32;;;;;;;14.39;60.33;99971.72;4988775;28;114210;-69
2021/05/17 02:56:09;;;;;;;9.40;6.38;;;;;;;14.38;60.32;99967.38;4982062;28;113187;-69
2021/05/17 02:58:41;;;;;;;9.50;6.18;;;;;;;14.39;60.27;99974.38;4984340;28;123446;-70
2021/05/17 03:01:21;;;;;;;8.27;5.30;;;;;;;14.41;60.51;99975.16;4998673;28;124181;-68
2021/05/17 03:03:50;;;;;;;12.75;6.18;;;;;;;14.41;60.67;99975.16;5003583;28;113379;-67
2021/05/17 03:06:35;;;;;;;8.33;5.67;;;;;;;14.41;60.48;99983.13;4985638;28;112155;-68
2021/05/17 03:09:09;;;;;;;8.38;5.38;;;;;;;14.43;60.52;99970.53;4984661;28;122875;-67
2021/05/17 03:11:51;;;;;;;8.32;5.50;;;;;;;14.45;60.55;99971.28;5001600;28;123076;-68
2021/05/17 03:14:21;;;;;;;8.50;5.00;;;;;;;14.46;60.44;99972.97;4984924;28;114456;-68
2021/05/17 03:16:57;;;;;;;9.35;5.47;;;;;;;14.46;60.50;99967.63;4987991;28;113776;-68
2021/05/17 03:19:25;;;;;;;8.43;4.97;;;;;;;14.49;60.52;99970.06;5002310;28;124336;-67
2021/05/17 03:21:54;;;;;;;7.82;4.78;;;;;;;14.50;60.53;99974.41;4989375;28;124290;-68
2021/05/17 03:24:23;;;;;;;9.05;4.82;;;;;;;14.53;60.43;99982.19;4987785;28;113437;-68
2021/05/17 03:26:55;;;;;;;9.43;4.78;;;;;;;14.54;60.59;99978.56;4987536;28;113226;-68
2021/05/17 03:29:22;;;;;;;8.32;4.82;;;;;;;14.56;60.39;99984.63;4988658;28;124045;-68
2021/05/17 03:31:49;;;;;;;8.60;4.82;;;;;;;14.54;60.41;99975.91;4988721;28;123921;-68
2021/05/17 03:34:16;;;;;;;6.47;4.57;;;;;;;14.54;60.49;99981.25;4987588;28;114408;-68
2021/05/17 03:36:43;;;;;;;9.07;4.25;;;;;;;14.52;60.60;99972.53;4989563;28;114294;-68
2021/05/17 03:39:11;;;;;;;6.70;4.53;;;;;;;14.52;60.24;99972.53;4985703;28;123151;-68
2021/05/17 03:41:38;;;;;;;6.63;3.70;;;;;;;14.51;60.66;99968.13;4969619;28;123152;-69
2021/05/17 03:44:05;;;;;;;6.57;3.85;;;;;;;14.52;60.66;99972.53;4986709;28;113384;-68
2021/05/17 03:46:32;;;;;;;9.25;4.30;;;;;;;14.51;60.54;99970.81;4996965;28;113056;-68
2021/05/17 03:48:59;;;;;;;9.13;3.50;;;;;;;14.52;60.61;99977.84;4988871;28;124813;-68
2021/05/17 03:51:26;;;;;;;6.35;3.85;;;;;;;14.53;60.59;99973.38;4990123;28;123781;-68
2021/05/17 03:53:53;;;;;;;5.82;3.30;;;;;;;14.53;60.87;99978.69;4990499;28;114275;-68
2021/05/17 03:56:20;;;;;;;8.95;3.63;;;;;;;14.53;60.54;99971.53;4989743;28;114409;-68
2021/05/17 03:58:48;;;;;;;7.00;3.53;;;;;;;14.52;60.70;99980.50;4988634;28;124477;-68
2021/05/17 04:01:16;;;;;;;6.95;3.42;;;;;;;14.53;60.84;99974.19;4983262;28;122649;-68
2021/05/17 04:03:43;;;;;;;5.57;3.45;;;;;;;14.54;61.00;99975.91;4987394;28;114108;-68
2021/05/17 04:06:20;;;;;;;4.93;2.92;;;;;;;14.55;60.65;99972.25;4990039;28;113980;-68
2021/05/17 04:14:18;;;;;;;7.43;3.00;;;;;;;14.59;60.65;99979.09;4990491;28;114023;-68
2021/05/17 04:16:45;;;;;;;6.55;2.95;;;;;;;14.58;60.83;99976.56;4990563;28;113238;-68
2021/05/17 04:19:13;;;;;;;4.97;3.10;;;;;;;14.57;60.80;99973.03;4991033;28;124770;-68
2021/05/17 04:21:40;;;;;;;4.90;3.08;;;;;;;14.59;60.90;99980.91;5004459;28;124593;-68
2021/05/17 04:24:08;;;;;;;6.95;3.30;;;;;;;14.60;60.89;99979.97;5002588;28;113279;-68
2021/05/17 04:26:35;;;;;;;8.48;3.15;;;;;;;14.63;60.92;99978.88;4994429;28;113133;-68
2021/05/17 04:29:03;;;;;;;4.65;3.17;;;;;;;14.63;60.76;99978.88;4990977;28;123379;-68
2021/05/17 04:31:30;;;;;;;6.18;3.28;;;;;;;14.63;60.85;99984.19;4994582;28;123871;-68
2021/05/17 04:33:57;;;;;;;7.10;3.67;;;;;;;14.64;60.91;99980.59;4994582;28;115071;-67
2021/05/17 04:36:27;;;;;;;7.82;3.88;;;;;;;14.64;60.96;99986.75;4990459;28;114047;-68
2021/05/17 04:38:54;;;;;;;5.47;3.88;;;;;;;14.66;60.90;99983.97;4991163;28;123216;-68
2021/05/17 04:41:21;;;;;;;6.95;3.35;;;;;;;14.68;61.05;99984.72;4991842;28;124304;-69
2021/05/17 04:43:48;;;;;;;5.53;3.83;;;;;;;14.69;60.93;99991.72;4992130;28;115004;-68
2021/05/17 04:46:16;;;;;;;7.22;3.92;;;;;;;14.69;60.97;99983.72;4991283;28;114400;-69
2021/05/17 04:48:49;;;;;;;7.50;3.75;;;;;;;14.71;60.98;99987.13;4990651;28;124078;-69
2021/05/17 04:51:18;;;;;;;6.32;3.90;;;;;;;14.73;61.03;99990.50;4999565;28;124228;-69
2021/05/17 04:53:45;;;;;;;7.20;3.95;;;;;;;14.71;60.85;99992.44;5005824;28;114696;-68
2021/05/17 04:56:13;;;;;;;10.98;4.10;;;;;;;14.72;61.07;100000.34;4990611;28;115561;-68
2021/05/17 04:58:40;;;;;;;6.15;4.30;;;;;;;14.74;60.98;99997.56;4989716;28;122826;-68
2021/05/17 05:01:07;;;;;;;7.60;4.68;;;;;;;14.75;61.02;99993.94;4989783;28;123280;-68
2021/05/17 05:03:34;;;;;;;7.15;4.05;;;;;;;14.76;61.05;99995.63;4988947;28;113535;-68
2021/05/17 05:06:05;;;;;;;5.57;3.83;;;;;;;14.78;61.02;99999.03;4991815;28;113926;-69
2021/05/17 05:08:32;;;;;;;5.47;3.78;;;;;;;14.80;60.99;100002.41;4992516;28;124056;-69
2021/05/17 05:10:59;;;;;;;9.43;4.07;;;;;;;14.82;60.97;100000.47;4984712;28;122943;-68
2021/05/17 05:13:26;;;;;;;8.80;4.15;;;;;;;14.86;61.08;100001.09;4992487;28;114514;-68
2021/05/17 05:15:54;;;;;;;6.82;4.30;;;;;;;14.90;61.14;99997.22;4991312;28;114202;-68
2021/05/17 05:18:21;;;;;;;8.32;4.20;;;;;;;14.93;61.15;99997.84;4995036;28;123498;-68
2021/05/17 05:20:49;;;;;;;7.32;3.97;;;;;;;14.96;61.01;100002.09;4990731;28;124509;-68
2021/05/17 05:23:18;;;;;;;5.03;3.90;;;;;;;14.97;61.10;100004.66;4999838;28;113558;-68
2021/05/17 05:26:39;;;;;;;6.07;3.70;;;;;;;15.02;61.04;100003.44;4991296;28;114521;-68
2021/05/17 05:28:56;;;;;;;5.80;4.40;;;;;;;15.06;61.11;100012.91;4990152;23;125316;-67
2021/05/17 05:34:00;;;;;;;7.25;3.80;;;;;;;15.12;60.98;100001.75;4969438;28;114388;-70
2021/05/17 05:36:27;;;;;;;6.80;3.55;;;;;;;15.15;60.98;99996.19;4971415;28;114005;-70
2021/05/17 05:38:54;;;;;;;6.65;3.60;;;;;;;15.19;60.83;99997.66;4966104;28;124250;-70
2021/05/17 05:41:21;;;;;;;10.60;3.88;;;;;;;15.23;60.52;99998.25;4964752;28;124176;-70
2021/05/17 05:43:48;;;;;;;11.40;3.97;;;;;;;15.27;60.66;99994.38;4960514;28;115298;-70
2021/05/17 05:46:15;;;;;;;7.38;4.20;;;;;;;15.30;60.85;99997.66;4959795;28;114790;-70
2021/05/17 05:48:49;;;;;;;8.85;3.50;;;;;;;15.34;60.83;99996.44;4965590;28;124336;-69
2021/05/17 05:51:18;;;;;;;7.35;3.55;;;;;;;15.37;60.87;100001.56;4962176;28;124518;-70
2021/05/17 05:53:45;;;;;;;6.45;3.50;;;;;;;15.43;60.54;99999.38;4968516;28;114979;-70
2021/05/17 05:56:12;;;;;;;7.05;3.28;;;;;;;15.46;60.66;100004.44;4964792;28;113879;-70
2021/05/17 05:58:42;;;;;;;9.90;3.63;;;;;;;15.49;60.65;100005.06;4960421;28;124130;-70
2021/05/17 06:01:10;;;;;;;7.78;3.28;;;;;;;15.54;60.49;99996.72;4961488;28;125761;-70
2021/05/17 06:03:37;;;;;;;7.00;3.50;;;;;;;15.58;60.61;100003.50;4979512;28;113598;-70
2021/05/17 06:06:05;;;;;;;6.15;3.30;;;;;;;15.61;60.74;100003.22;4982069;28;114160;-69
2021/05/17 06:08:33;;;;;;;8.88;3.20;;;;;;;15.66;60.05;100006.41;4962286;28;124085;-70
2021/05/17 06:11:01;;;;;;;7.18;3.50;;;;;;;15.68;60.25;100008.94;4968129;28;124663;-70
2021/05/17 06:13:29;;;;;;;10.60;3.28;;;;;;;15.69;60.16;100010.63;4977797;28;113953;-70
2021/05/17 06:15:58;;;;;;;9.13;3.22;;;;;;;15.69;60.23;100016.84;4964759;28;114610;-70
2021/05/17 06:18:29;;;;;;;7.07;2.85;;;;;;;15.70;60.02;100018.50;4966952;28;123894;-69
2021/05/17 06:20:57;;;;;;;6.93;3.08;;;;;;;15.70;60.01;100017.69;4961530;28;123880;-69
2021/05/17 06:23:24;;;;;;;6.30;2.90;;;;;;;15.71;59.92;100012.22;4965605;28;114607;-69
2021/05/17 06:25:51;;;;;;;7.10;2.80;;;;;;;15.72;59.68;100003.22;4962623;28;114120;-70
2021/05/17 06:28:20;;;;;;;5.90;2.70;;;;;;;15.73;59.84;100012.97;4979615;28;124261;-70
2021/05/17 06:30:51;;;;;;;7.88;2.85;;;;;;;15.73;59.65;100012.97;4961931;28;123459;-70
2021/05/17 06:33:21;;;;;;;6.53;2.67;;;;;;;15.73;59.71;100007.63;4958930;28;115779;-70
2021/05/17 06:35:53;;;;;;;8.75;2.90;;;;;;;15.75;59.76;100011.03;4957729;28;114804;-70
2021/05/17 06:38:21;;;;;;;8.07;3.00;;;;;;;15.77;59.68;100014.44;4957353;28;123061;-70
2021/05/17 06:40:48;;;;;;;8.70;2.70;;;;;;;15.80;59.81;100012.47;4961970;28;124141;-70
2021/05/17 06:43:15;;;;;;;6.97;2.78;;;;;;;15.82;59.55;100011.38;4961498;28;115018;-70
2021/05/17 06:45:43;;;;;;;8.43;2.80;;;;;;;15.84;59.52;100013.91;4955865;28;114543;-70
2021/05/17 06:48:10;;;;;;;7.68;3.38;;;;;;;15.87;59.59;100019.88;4958139;28;124327;-71
2021/05/17 06:50:38;;;;;;;7.70;2.97;;;;;;;15.92;59.69;100022.19;4955246;28;123821;-70
2021/05/17 06:53:06;;;;;;;9.40;3.30;;;;;;;15.97;59.48;100025.31;4957396;28;114380;-70
2021/05/17 06:55:42;;;;;;;8.88;3.17;;;;;;;16.02;59.57;100019.63;4963296;28;114216;-71
2021/05/17 07:00:36;;;;;;;8.55;3.38;;;;;;;16.14;59.32;100016.81;4960347;28;124417;-70
2021/05/17 07:03:06;;;;;;;9.63;2.83;;;;;;;16.19;59.38;100018.25;4961878;28;114352;-71
2021/05/17 07:05:36;;;;;;;7.88;2.65;;;;;;;16.24;59.31;100026.75;4966148;28;112984;-70
2021/05/17 07:13:20;;;;;;;7.45;2.72;;;;;;;16.44;58.78;100023.25;4957473;28;114149;-71
2021/05/17 07:15:47;;;;;;;7.65;2.78;;;;;;;16.49;58.64;100025.56;4965430;28;114170;-70
2021/05/17 07:18:15;;;;;;;6.15;2.40;;;;;;;16.51;58.44;100029.78;4978973;28;124792;-70
2021/05/17 07:26:03;;;;;;;6.97;2.80;;;;;;;16.61;58.00;100026.34;4964698;28;112870;-71
2021/05/17 07:28:30;;;;;;;5.80;2.63;;;;;;;16.66;57.86;100037.50;4960379;28;122884;-71
2021/05/17 07:31:01;;;;;;;5.53;2.72;;;;;;;16.68;57.52;100035.56;4947996;28;124934;-71
2021/05/17 07:33:29;;;;;;;8.00;2.60;;;;;;;16.69;57.36;100029.25;4949025;28;114188;-71
2021/05/17 07:35:56;;;;;;;6.97;2.75;;;;;;;16.71;57.32;100040.66;4949386;28;114575;-71
2021/05/17 07:38:28;;;;;;;5.68;2.40;;;;;;;16.72;57.20;100037.00;4967775;28;122880;-71
2021/05/17 07:40:56;;;;;;;5.18;2.50;;;;;;;16.72;56.87;100031.66;4950917;28;122843;-71
2021/05/17 07:43:23;;;;;;;5.25;2.55;;;;;;;16.71;56.70;100029.97;4966452;28;114547;-71
2021/05/17 07:45:51;;;;;;;7.15;2.45;;;;;;;16.71;56.66;100032.63;4966392;28;114205;-71
2021/05/17 07:48:19;;;;;;;4.30;2.30;;;;;;;16.73;56.89;100034.19;4961339;28;123928;-72
2021/05/17 07:50:47;;;;;;;5.00;2.17;;;;;;;16.77;56.96;100034.78;4965673;28;124176;-71
2021/05/17 07:53:14;;;;;;;5.95;2.33;;;;;;;16.81;56.86;100041.56;4965219;28;115061;-71
2021/05/17 07:55:42;;;;;;;5.47;2.08;;;;;;;16.86;56.80;100028.69;4964536;28;113173;-71
2021/05/17 07:58:09;;;;;;;6.07;2.08;;;;;;;16.90;56.66;100035.47;4977996;28;123691;-71
2021/05/17 08:00:36;;;;;;;7.57;2.17;;;;;;;16.92;56.29;100033.53;4951456;28;124815;-70
2021/05/17 08:03:05;;;;;;;4.95;2.30;;;;;;;16.95;56.11;100042.25;4979577;28;113762;-70
2021/05/17 08:05:52;;;;;;;4.00;2.05;;;;;;;16.96;56.59;100035.94;4960422;28;113238;-71
2021/05/17 08:08:19;;;;;;;5.32;2.08;;;;;;;17.00;56.76;100034.69;4965976;28;122962;-70
2021/05/17 08:10:46;;;;;;;8.25;2.42;;;;;;;16.99;56.73;100046.38;4961996;28;123899;-71
2021/05/17 08:13:13;;;;;;;6.22;2.22;;;;;;;16.99;56.77;100051.72;4962003;28;115222;-70
2021/05/17 08:15:45;;;;;;;4.80;2.55;;;;;;;16.93;56.81;100056.63;4951659;28;115274;-70
2021/05/17 08:18:12;;;;;;;6.03;2.97;;;;;;;16.89;56.90;100057.84;4957490;28;124153;-71
2021/05/17 08:20:40;;;;;;;5.78;2.40;;;;;;;16.84;57.17;100057.41;4960611;28;124003;-72
2021/05/17 08:23:10;;;;;;;6.68;2.47;;;;;;;16.80;57.24;100053.25;4985191;28;113719;-71
2021/05/17 08:25:37;;;;;;;6.60;2.90;;;;;;;16.76;57.85;100054.47;4960915;28;113970;-71
2021/05/17 08:28:05;;;;;;;7.15;2.90;;;;;;;16.77;58.07;100050.84;4963047;28;124243;-71
2021/05/17 08:30:40;;;;;;;6.22;2.55;;;;;;;16.80;58.57;100053.25;4978365;28;122662;-70
2021/05/17 08:33:09;;;;;;;5.22;2.72;;;;;;;16.88;58.42;100042.78;4955203;28;114198;-71
2021/05/17 08:35:37;;;;;;;5.22;2.72;;;;;;;16.98;58.67;100058.06;4954768;28;113161;-71
2021/05/17 08:38:05;;;;;;;6.55;2.92;;;;;;;17.08;58.59;100061.63;4968055;28;123826;-71
2021/05/17 08:40:37;;;;;;;5.68;3.40;;;;;;;17.18;58.97;100051.88;4961812;28;123884;-71
2021/05/17 08:43:05;;;;;;;5.20;2.63;;;;;;;17.29;58.50;100058.94;4964996;28;114935;-71
2021/05/17 08:45:32;;;;;;;6.53;2.40;;;;;;;17.37;57.60;100047.63;4979651;28;113454;-70
2021/05/17 08:48:00;;;;;;;8.02;2.50;;;;;;;17.46;57.39;100052.16;4954971;28;124322;-70
2021/05/17 08:50:27;;;;;;;4.00;2.53;;;;;;;17.53;57.19;100047.97;4956595;28;123878;-71
2021/05/17 08:52:56;;;;;;;3.50;1.95;;;;;;;17.56;56.33;100047.69;4957573;28;114989;-71
2021/05/17 08:55:23;;;;;;;6.28;2.25;;;;;;;17.58;56.19;100051.09;4974048;28;113865;-71
2021/05/17 08:57:52;;;;;;;7.50;2.55;;;;;;;17.60;56.44;100054.47;4952447;28;124827;-71
2021/05/17 09:00:22;;;;;;;5.22;2.75;;;;;;;17.71;57.18;100057.06;4953870;28;124375;-71
2021/05/17 09:02:49;;;;;;;6.38;2.13;;;;;;;17.81;56.87;100056.25;4957528;28;115040;-72
2021/05/17 09:05:19;;;;;;;4.43;2.50;;;;;;;17.87;56.45;100050.38;4959070;28;114742;-71
2021/05/17 09:07:49;;;;;;;5.60;2.20;;;;;;;17.91;56.22;100051.81;4980928;28;124242;-72
2021/05/17 09:10:19;;;;;;;4.43;2.25;;;;;;;17.94;55.78;100062.25;4959599;28;125086;-71
2021/05/17 09:12:54;;;;;;;5.32;2.72;;;;;;;17.93;55.95;100049.84;4966262;28;114623;-72
2021/05/17 09:15:35;;;;;;;4.43;2.37;;;;;;;17.98;56.19;100058.31;4968898;28;113815;-71
2021/05/17 09:18:15;;;;;;;6.88;2.40;;;;;;;18.02;56.50;100065.09;4955599;28;124741;-71
2021/05/17 09:20:45;;;;;;;4.28;2.33;;;;;;;18.14;56.47;100056.94;4957660;28;124231;-72
2021/05/17 09:23:33;;;;;;;7.28;2.50;;;;;;;18.26;56.50;100055.84;4965143;28;114060;-72
2021/05/17 09:26:08;;;;;;;4.60;2.40;;;;;;;18.39;56.20;100056.44;4958018;28;113719;-72
2021/05/17 09:28:40;;;;;;;5.18;2.72;;;;;;;18.49;55.78;100059.97;4953279;28;124624;-71
2021/05/17 09:31:09;;;;;;;6.57;2.60;;;;;;;18.59;54.98;100051.09;4953004;28;124082;-72
2021/05/17 09:33:50;;;;;;;6.82;2.53;;;;;;;18.64;55.23;100060.41;4950769;28;115028;-72
2021/05/17 09:36:28;;;;;;;5.03;2.50;;;;;;;18.70;55.01;100061.69;4951150;28;113596;-72
2021/05/17 09:39:06;;;;;;;5.18;2.75;;;;;;;18.79;54.91;100057.31;4950503;28;123461;-72
2021/05/17 09:41:38;;;;;;;5.13;2.75;;;;;;;18.89;55.12;100057.34;4954098;28;124234;-72
2021/05/17 09:44:05;;;;;;;4.75;2.53;;;;;;;19.03;55.05;100059.59;4947419;28;113127;-72
2021/05/17 09:47:18;;;;;;;4.40;2.72;;;;;;;19.10;54.62;100062.53;4951446;28;114566;-72
2021/05/17 09:49:48;;;;;;;5.95;2.13;;;;;;;19.11;54.16;100057.03;4949722;28;123269;-72
2021/05/17 09:52:25;;;;;;;5.68;2.60;;;;;;;19.08;54.25;100068.06;4948076;28;122792;-71
2021/05/17 09:54:52;;;;;;;4.80;2.03;;;;;;;19.04;53.66;100066.63;4947969;28;115700;-71
2021/05/17 09:57:29;;;;;;;3.58;2.40;;;;;;;18.96;53.61;100074.56;4948095;28;113843;-72
2021/05/17 10:00:04;;;;;;;3.83;2.20;;;;;;;18.90;53.53;100069.78;4946832;28;123514;-72
2021/05/17 10:02:33;;;;;;;6.03;2.45;;;;;;;18.85;53.55;100068.38;4953976;28;99030;-72
2021/05/17 10:05:20;;;;;;;5.25;2.58;;;;;;;18.83;53.81;100069.47;4949978;28;114132;-72
2021/05/17 10:07:53;;;;;;;6.07;2.78;;;;;;;18.84;53.86;100072.03;4950283;28;114006;-72
2021/05/17 10:10:39;;;;;;;3.83;2.22;;;;;;;18.85;54.07;100068.38;4963029;28;123876;-71
2021/05/17 10:13:07;;;;;;;7.38;2.60;;;;;;;18.94;54.41;100065.81;4975631;28;124303;-72
2021/05/17 10:15:35;;;;;;;5.97;2.85;;;;;;;19.06;54.55;100067.34;4961277;28;114979;-72
2021/05/17 10:18:09;;;;;;;;;;;;;;;19.18;54.81;100057.31;4961025;28;114495;-71
2021/05/17 10:20:36;;;;;;;6.35;2.72;;;;;;;19.33;54.76;100055.03;4963992;28;125062;-71
2021/05/17 10:23:04;;;;;;;4.63;2.50;;;;;;;19.43;54.00;100058.53;4978900;28;124468;-72
2021/05/17 10:25:34;;;;;;;8.50;2.75;;;;;;;19.52;53.77;100060.34;4958287;28;114323;-72
2021/05/17 10:28:24;;;;;;;10.75;2.65;;;;;;;19.55;53.20;100052.00;4953851;28;114136;-72
2021/05/17 10:30:52;;;;;;;5.97;2.78;;;;;;;19.60;52.88;100056.91;4951105;28;124162;-72
2021/05/17 10:33:25;;;;;;;4.78;2.78;;;;;;;19.58;52.39;100054.38;4963262;28;124330;-72
2021/05/17 10:35:53;;;;;;;7.82;2.92;;;;;;;19.54;52.31;100052.13;4963091;28;114489;-72
2021/05/17 10:38:40;;;;;;;6.63;1.92;;;;;;;19.46;51.53;100058.25;4961567;28;114363;-71
2021/05/17 10:41:38;;;;;;;4.82;1.80;;;;;;;19.35;51.43;100058.41;4957672;28;123627;-72
2021/05/17 10:46:54;;;;;;;3.60;1.90;;;;;;;19.19;52.16;100059.88;4959944;28;115514;-72
2021/05/17 10:49:29;;;;;;;;;;;;;;;19.17;52.50;100061.81;4979165;28;114359;-72
2021/05/17 10:52:10;;;;;;;3.15;1.92;;;;;;;19.15;52.32;100066.47;4958584;28;123534;-72
2021/05/17 10:54:41;;;;;;;5.40;1.80;;;;;;;19.10;52.38;100071.47;4979598;28;123507;-72
2021/05/17 10:57:21;;;;;;;3.50;2.10;;;;;;;19.07;52.19;100082.47;4958346;28;114787;-72
2021/05/17 11:02:39;;;;;;;3.65;2.30;;;;;;;19.01;52.56;100077.69;4964463;28;123058;-72
2021/05/17 11:05:19;;;;;;;4.40;2.30;;;;;;;19.01;52.83;100077.69;4960886;28;123980;-72
2021/05/17 11:07:56;;;;;;;3.28;1.75;;;;;;;19.02;52.71;100079.34;4962098;28;115073;-72
2021/05/17 11:10:25;;;;;;;3.20;1.80;;;;;;;19.04;52.49;100088.13;4959186;28;114382;-72
2021/05/17 11:13:11;;;;;;;3.17;1.73;;;;;;;19.01;52.50;100093.78;4966491;28;124773;-71
2021/05/17 11:16:09;;;;;;;2.75;1.90;;;;;;;18.98;52.91;100083.31;4978624;28;123334;-72
2021/05/17 11:18:40;;;;;;;3.15;2.10;;;;;;;19.05;53.13;100084.44;4955107;28;114291;-71
2021/05/17 11:21:12;;;;;;;2.80;1.70;;;;;;;19.11;53.04;100077.66;4977484;28;114375;-71
2021/05/17 11:23:39;;;;;;;1.70;1.42;;;;;;;19.15;52.89;100079.91;4968929;28;123320;-71
2021/05/17 11:26:12;;;;;;;2.05;1.50;;;;;;;19.21;52.95;100091.91;4952089;28;123948;-70
2021/05/17 11:28:43;;;;;;;1.35;1.20;;;;;;;19.23;52.42;100088.09;4950929;28;114821;-70
2021/05/17 11:31:20;;;;;;;2.05;1.40;;;;;;;19.25;52.76;100090.66;4975936;23;114307;-64
2021/05/17 11:33:59;;;;;;;1.52;1.42;;;;;;;19.32;52.97;100090.91;5006982;28;122981;-63
2021/05/17 11:36:27;;;;;;;2.08;1.83;;;;;;;19.38;52.18;100095.69;4979009;28;123954;-63
2021/05/17 11:39:19;;;;;;;2.40;2.13;;;;;;;19.38;52.27;100101.94;4962027;28;115288;-63
2021/05/17 11:41:58;;;;;;;3.80;2.80;;;;;;;19.43;52.80;100096.13;4964132;28;114875;-64
2021/05/17 11:45:10;;;;;;;3.30;2.83;;;;;;;19.59;53.09;100098.19;4963351;28;124282;-64
2021/05/17 11:47:31;;;;;;;5.35;3.30;;;;;;;19.84;53.55;100099.44;4969483;28;123748;-63
2021/05/17 11:49:58;;;;;;;4.32;3.30;;;;;;;20.01;52.64;100098.63;4971834;28;114381;-64
2021/05/17 11:52:31;;;;;;;6.28;3.75;;;;;;;20.11;52.38;100100.44;4966688;28;114786;-64
2021/05/17 11:54:59;;;;;;;4.50;3.72;;;;;;;20.19;51.90;100100.53;4957425;28;124265;-64
2021/05/17 11:57:30;;;;;;;5.30;3.70;;;;;;;20.29;51.66;100101.34;4973678;28;124677;-64
2021/05/17 12:00:06;;;;;;;4.75;4.10;;;;;;;20.36;51.62;100107.81;4972391;28;114454;-64
2021/05/17 12:02:53;;;;;;;4.85;4.40;;;;;;;20.41;51.06;100105.50;4972309;28;114519;-63
2021/05/17 12:05:23;;;;;;;6.03;4.75;;;;;;;20.43;50.97;100106.19;4966758;28;124496;-63